createdAt,value
2023-03-05T00:00:51.070Z,55.83
2023-03-05T00:02:22.722Z,56.63
2023-03-05T00:03:57.509Z,51.35
2023-03-05T00:05:29.606Z,60.17
2023-03-05T00:07:01.322Z,64.65
2023-03-05T00:08:33.555Z,58.53
2023-03-05T00:10:06.588Z,57.45
2023-03-05T00:11:39.647Z,54.35
2023-03-05T00:13:11.232Z,62.78
2023-03-05T00:14:42.996Z,56.40
2023-03-05T00:16:16.104Z,56.60
2023-03-05T00:17:47.747Z,48.65
2023-03-05T00:19:19.308Z,46.00
2023-03-05T00:20:51.042Z,58.10
2023-03-05T00:22:22.637Z,55.88
2023-03-05T00:23:55.606Z,51.70
2023-03-05T00:25:27.183Z,53.53
2023-03-05T00:26:58.736Z,52.65
2023-03-05T00:28:30.370Z,51.70
2023-03-05T00:30:02.077Z,53.92
2023-03-05T00:31:35.186Z,57.45
2023-03-05T00:33:07.724Z,55.85
2023-03-05T00:34:39.344Z,55.85
2023-03-05T00:36:11.221Z,54.35
2023-03-05T00:37:42.803Z,46.30
2023-03-05T00:39:15.261Z,49.75
2023-03-05T00:40:46.849Z,49.92
2023-03-05T00:42:18.420Z,59.63
2023-03-05T00:43:49.988Z,40.80
2023-03-05T00:45:21.639Z,53.75
2023-03-05T00:46:53.365Z,53.63
2023-03-05T00:48:25.603Z,52.47
2023-03-05T00:49:57.175Z,55.80
2023-03-05T00:51:29.066Z,53.58
2023-03-05T00:53:00.700Z,52.35
2023-03-05T00:54:32.516Z,49.03
2023-03-05T00:56:04.401Z,54.30
2023-03-05T00:57:36.007Z,50.47
2023-03-05T00:59:07.625Z,50.10
2023-03-05T01:00:40.210Z,54.40
2023-03-05T01:02:12.047Z,56.10
2023-03-05T01:03:43.639Z,55.03
2023-03-05T01:05:15.959Z,56.83
2023-03-05T01:06:47.657Z,54.95
2023-03-05T01:08:19.804Z,53.85
2023-03-05T01:09:51.342Z,61.60
2023-03-05T01:11:23.020Z,56.90
2023-03-05T01:12:55.989Z,48.67
2023-03-05T01:14:28.344Z,61.70
2023-03-05T01:16:00.494Z,59.03
2023-03-05T01:17:32.464Z,51.65
2023-03-05T01:19:04.405Z,56.35
2023-03-05T01:20:36.396Z,66.20
2023-03-05T01:22:10.090Z,57.47
2023-03-05T01:23:41.763Z,56.72
2023-03-05T01:25:14.892Z,56.10
2023-03-05T01:26:46.545Z,58.28
2023-03-05T01:28:18.645Z,48.65
2023-03-05T01:29:50.261Z,65.72
2023-03-05T01:31:22.145Z,66.90
2023-03-05T01:32:54.887Z,55.35
2023-03-05T01:34:26.465Z,51.83
2023-03-05T01:35:58.091Z,56.17
2023-03-05T01:37:29.720Z,50.85
2023-03-05T01:39:02.555Z,56.40
2023-03-05T01:40:34.210Z,59.20
2023-03-05T01:42:06.202Z,58.40
2023-03-05T01:43:37.988Z,56.15
2023-03-05T01:45:13.368Z,57.80
2023-03-05T01:46:46.264Z,55.85
2023-03-05T01:48:17.946Z,54.67
2023-03-05T01:53:42.621Z,47.33
2023-03-05T01:55:19.857Z,52.30
2023-03-05T01:56:53.287Z,49.88
2023-03-05T01:58:25.985Z,56.08
2023-03-05T02:00:39.778Z,49.00
2023-03-05T02:02:12.950Z,48.90
2023-03-05T02:03:45.340Z,57.47
2023-03-05T02:05:26.990Z,49.97
2023-03-05T02:06:59.550Z,54.03
2023-03-05T02:08:31.212Z,55.72
2023-03-05T02:10:22.009Z,52.88
2023-03-05T02:11:54.910Z,63.35
2023-03-05T02:13:31.617Z,55.17
2023-03-05T02:15:03.438Z,58.70
2023-03-05T02:16:37.000Z,58.38
2023-03-05T02:18:09.748Z,62.97
2023-03-05T02:19:52.967Z,54.50
2023-03-05T02:21:29.833Z,48.95
2023-03-05T02:23:01.383Z,53.50
2023-03-05T02:24:37.271Z,60.38
2023-03-05T02:26:11.153Z,59.92
2023-03-05T02:27:46.509Z,58.15
2023-03-05T02:29:20.033Z,54.88
2023-03-05T02:30:52.668Z,51.47
2023-03-05T02:32:24.321Z,59.80
2023-03-05T02:33:56.303Z,53.40
2023-03-05T02:35:29.126Z,55.20
2023-03-05T02:37:04.634Z,57.50
2023-03-05T02:38:39.622Z,58.67
2023-03-05T02:40:12.791Z,60.90
2023-03-05T02:41:45.544Z,59.70
2023-03-05T02:43:17.359Z,61.78
2023-03-05T02:44:48.988Z,52.13
2023-03-05T02:46:21.117Z,54.67
2023-03-05T02:47:52.894Z,49.35
2023-03-05T02:49:24.604Z,66.43
2023-03-05T02:50:57.040Z,60.17
2023-03-05T02:52:29.839Z,60.63
2023-03-05T02:54:01.553Z,56.08
2023-03-05T02:55:34.689Z,56.80
2023-03-05T02:57:06.286Z,55.97
2023-03-05T02:58:37.832Z,60.95
2023-03-05T03:00:10.470Z,53.10
2023-03-05T03:01:42.206Z,58.78
2023-03-05T03:03:14.444Z,60.38
2023-03-05T03:04:46.192Z,60.22
2023-03-05T03:06:17.705Z,51.03
2023-03-05T03:07:49.730Z,57.92
2023-03-05T03:09:21.338Z,50.92
2023-03-05T03:10:52.973Z,53.40
2023-03-05T03:12:24.587Z,52.92
2023-03-05T03:13:56.167Z,60.28
2023-03-05T03:15:27.891Z,60.00
2023-03-05T03:16:59.648Z,55.45
2023-03-05T03:18:31.712Z,46.78
2023-03-05T03:20:07.209Z,57.53
2023-03-05T03:21:38.929Z,56.30
2023-03-05T03:23:10.471Z,57.30
2023-03-05T03:24:43.048Z,53.85
2023-03-05T03:26:14.655Z,50.90
2023-03-05T03:27:46.428Z,55.72
2023-03-05T03:29:18.157Z,60.20
2023-03-05T03:30:50.212Z,59.60
2023-03-05T03:32:21.929Z,56.90
2023-03-05T03:33:53.541Z,58.28
2023-03-05T03:35:25.202Z,58.10
2023-03-05T03:36:56.857Z,57.70
2023-03-05T03:38:28.440Z,56.22
2023-03-05T03:40:00.051Z,61.88
2023-03-05T03:41:32.670Z,60.05
2023-03-05T03:43:04.300Z,57.20
2023-03-05T03:44:35.901Z,54.72
2023-03-05T03:46:08.165Z,58.72
2023-03-05T03:47:39.780Z,53.70
2023-03-05T03:49:16.375Z,56.95
2023-03-05T03:50:47.970Z,53.47
2023-03-05T03:52:19.559Z,49.05
2023-03-05T03:53:51.128Z,62.03
2023-03-05T03:55:22.715Z,53.50
2023-03-05T03:56:54.414Z,54.30
2023-03-05T03:58:26.106Z,53.22
2023-03-05T03:59:57.713Z,54.25
2023-03-05T04:01:29.278Z,56.28
2023-03-05T04:03:00.861Z,57.08
2023-03-05T04:04:32.483Z,56.08
2023-03-05T04:06:04.565Z,65.05
2023-03-05T04:07:36.221Z,56.08
2023-03-05T04:09:08.547Z,59.10
2023-03-05T04:10:40.217Z,53.35
2023-03-05T04:12:11.917Z,51.95
2023-03-05T04:13:43.457Z,55.58
2023-03-05T04:15:15.026Z,52.90
2023-03-05T04:16:46.625Z,55.03
2023-03-05T04:18:18.281Z,54.25
2023-03-05T04:19:49.928Z,65.90
2023-03-05T04:21:21.615Z,59.70
2023-03-05T04:22:53.408Z,54.53
2023-03-05T04:24:24.955Z,56.67
2023-03-05T04:25:56.542Z,57.25
2023-03-05T04:27:28.122Z,60.78
2023-03-05T04:28:59.680Z,60.17
2023-03-05T04:30:31.487Z,52.35
2023-03-05T04:32:03.601Z,58.08
2023-03-05T04:33:35.324Z,55.20
2023-03-05T04:35:07.129Z,55.95
2023-03-05T04:36:38.804Z,55.90
2023-03-05T04:38:10.999Z,62.42
2023-03-05T04:39:42.520Z,50.10
2023-03-05T04:41:14.127Z,52.30
2023-03-05T04:42:45.775Z,48.90
2023-03-05T04:44:17.968Z,57.78
2023-03-05T04:45:49.601Z,55.08
2023-03-05T04:47:21.343Z,53.28
2023-03-05T04:48:53.307Z,57.45
2023-03-05T04:50:25.657Z,50.75
2023-03-05T04:51:58.368Z,49.50
2023-03-05T04:53:29.958Z,56.28
2023-03-05T04:55:01.603Z,56.72
2023-03-05T04:56:33.235Z,51.30
2023-03-05T04:58:04.795Z,56.88
2023-03-05T04:59:37.897Z,55.67
2023-03-05T05:01:09.494Z,58.47
2023-03-05T05:02:42.909Z,51.88
2023-03-05T05:04:14.505Z,56.22
2023-03-05T05:05:46.078Z,67.43
2023-03-05T05:07:17.757Z,54.70
2023-03-05T05:08:49.414Z,51.50
2023-03-05T05:10:21.140Z,58.72
2023-03-05T05:11:53.049Z,57.92
2023-03-05T05:13:25.885Z,53.92
2023-03-05T05:15:00.269Z,51.25
2023-03-05T05:16:31.937Z,59.53
2023-03-05T05:18:03.672Z,54.88
2023-03-05T05:19:35.651Z,59.97
2023-03-05T05:21:12.308Z,54.42
2023-03-05T05:22:44.465Z,51.65
2023-03-05T05:24:16.143Z,55.97
2023-03-05T05:25:57.584Z,54.90
2023-03-05T05:27:29.218Z,59.17
2023-03-05T05:29:00.876Z,50.67
2023-03-05T05:30:32.437Z,50.92
2023-03-05T05:32:04.031Z,49.78
2023-03-05T05:33:35.932Z,52.45
2023-03-05T05:35:07.880Z,54.30
2023-03-05T05:36:39.429Z,54.13
2023-03-05T05:38:10.981Z,57.42
2023-03-05T05:39:42.549Z,53.58
2023-03-05T05:41:17.081Z,56.72
2023-03-05T05:42:48.831Z,55.38
2023-03-05T05:44:20.409Z,63.25
2023-03-05T05:45:52.110Z,53.28
2023-03-05T05:47:23.726Z,54.97
2023-03-05T05:48:55.289Z,56.80
2023-03-05T05:50:27.355Z,54.38
2023-03-05T05:51:59.446Z,50.47
2023-03-05T05:53:31.091Z,52.45
2023-03-05T05:55:02.764Z,61.90
2023-03-05T05:56:34.409Z,59.97
2023-03-05T05:58:05.942Z,56.63
2023-03-05T05:59:38.388Z,52.90
2023-03-05T06:01:16.385Z,55.78
2023-03-05T06:02:48.185Z,59.58
2023-03-05T06:04:19.847Z,50.90
2023-03-05T06:05:52.047Z,57.13
2023-03-05T06:07:23.650Z,55.38
2023-03-05T06:08:55.994Z,48.33
2023-03-05T06:10:27.608Z,59.80
2023-03-05T06:11:59.210Z,54.83
2023-03-05T06:13:30.829Z,53.42
2023-03-05T06:15:02.425Z,60.03
2023-03-05T06:16:34.855Z,54.90
2023-03-05T06:18:06.577Z,54.30
2023-03-05T06:19:38.114Z,59.00
2023-03-05T06:21:13.748Z,60.45
2023-03-05T06:22:45.339Z,52.83
2023-03-05T06:24:19.269Z,55.88
2023-03-05T06:25:50.966Z,55.35
2023-03-05T06:27:22.729Z,61.03
2023-03-05T06:28:54.799Z,55.92
2023-03-05T06:30:26.367Z,52.95
2023-03-05T06:31:58.053Z,48.58
2023-03-05T06:33:30.173Z,46.88
2023-03-05T06:35:02.190Z,63.58
2023-03-05T06:36:33.739Z,57.13
2023-03-05T06:38:06.118Z,56.55
2023-03-05T06:39:37.701Z,55.83
2023-03-05T06:41:17.232Z,54.80
2023-03-05T06:42:48.998Z,60.55
2023-03-05T06:44:20.612Z,53.90
2023-03-05T06:46:02.660Z,59.67
2023-03-05T06:47:35.087Z,59.90
2023-03-05T06:49:08.577Z,52.95
2023-03-05T06:50:40.222Z,54.17
2023-03-05T06:52:12.776Z,55.72
2023-03-05T06:53:46.809Z,52.85
2023-03-05T06:55:19.920Z,56.03
2023-03-05T06:56:51.531Z,57.85
2023-03-05T06:58:23.786Z,47.80
2023-03-05T06:59:55.533Z,56.55
2023-03-05T07:01:27.255Z,51.35
2023-03-05T07:02:58.994Z,54.10
2023-03-05T07:04:30.644Z,59.80
2023-03-05T07:06:07.598Z,51.83
2023-03-05T07:07:39.224Z,62.17
2023-03-05T07:09:14.809Z,55.72
2023-03-05T07:10:46.426Z,57.40
2023-03-05T07:12:17.961Z,54.05
2023-03-05T07:13:50.066Z,54.85
2023-03-05T07:15:21.665Z,46.72
2023-03-05T07:16:53.293Z,55.38
2023-03-05T07:18:24.933Z,51.00
2023-03-05T07:19:56.534Z,59.08
2023-03-05T07:21:30.350Z,57.30
2023-03-05T07:23:02.225Z,56.67
2023-03-05T07:24:34.013Z,57.28
2023-03-05T07:26:06.884Z,53.40
2023-03-05T07:27:39.043Z,51.88
2023-03-05T07:29:10.846Z,61.15
2023-03-05T07:30:42.479Z,52.85
2023-03-05T07:32:14.105Z,58.95
2023-03-05T07:33:47.397Z,54.17
2023-03-05T07:35:19.068Z,53.88
2023-03-05T07:36:51.896Z,54.80
2023-03-05T07:38:23.668Z,60.45
2023-03-05T07:39:55.285Z,54.67
2023-03-05T07:41:27.065Z,63.22
2023-03-05T07:42:58.660Z,49.80
2023-03-05T07:44:36.065Z,59.38
2023-03-05T07:46:10.209Z,48.25
2023-03-05T07:47:41.843Z,55.40
2023-03-05T07:49:13.531Z,50.45
2023-03-05T07:50:45.100Z,50.67
2023-03-05T07:52:16.832Z,59.22
2023-03-05T07:53:50.348Z,56.05
2023-03-05T07:55:21.944Z,57.58
2023-03-05T07:56:54.855Z,53.33
2023-03-05T07:58:26.620Z,58.25
2023-03-05T07:59:58.191Z,50.70
2023-03-05T08:01:31.262Z,54.88
2023-03-05T08:03:02.904Z,53.45
2023-03-05T08:04:34.581Z,63.70
2023-03-05T08:06:07.967Z,59.63
2023-03-05T08:07:39.662Z,53.22
2023-03-05T08:09:11.335Z,48.08
2023-03-05T08:10:43.028Z,60.70
2023-03-05T08:12:14.641Z,55.10
2023-03-05T08:13:46.477Z,55.47
2023-03-05T08:15:18.186Z,59.42
2023-03-05T08:16:52.796Z,77.43
2023-03-05T08:18:24.547Z,63.63
2023-03-05T08:19:58.375Z,60.75
2023-03-05T08:21:35.546Z,51.13
2023-03-05T08:23:07.162Z,63.13
2023-03-05T08:24:38.732Z,52.10
2023-03-05T08:26:18.473Z,48.30
2023-03-05T08:27:50.136Z,53.75
2023-03-05T08:29:22.040Z,57.88
2023-03-05T08:30:53.744Z,60.72
2023-03-05T08:32:25.554Z,57.05
2023-03-05T08:33:59.381Z,59.55
2023-03-05T08:35:31.082Z,61.78
2023-03-05T08:37:02.789Z,57.13
2023-03-05T08:38:34.546Z,48.85
2023-03-05T08:40:06.801Z,56.90
2023-03-05T08:41:38.553Z,55.67
2023-03-05T08:43:10.199Z,56.10
2023-03-05T08:44:41.840Z,54.63
2023-03-05T08:46:14.847Z,58.05
2023-03-05T08:47:46.445Z,51.10
2023-03-05T08:49:18.058Z,55.95
2023-03-05T08:50:49.940Z,59.17
2023-03-05T08:52:22.388Z,61.92
2023-03-05T08:53:56.209Z,57.45
2023-03-05T08:55:28.207Z,60.28
2023-03-05T08:57:00.360Z,61.35
2023-03-05T08:58:32.645Z,60.00
2023-03-05T09:00:04.789Z,53.60
2023-03-05T09:01:36.450Z,48.40
2023-03-05T09:03:09.102Z,67.50
2023-03-05T09:04:41.211Z,58.88
2023-03-05T09:06:12.898Z,61.63
2023-03-05T09:07:44.660Z,82.30
2023-03-05T09:09:16.506Z,80.10
2023-03-05T09:10:48.162Z,66.85
2023-03-05T09:12:19.783Z,64.20
2023-03-05T09:13:51.756Z,66.47
2023-03-05T09:15:23.592Z,52.17
2023-03-05T09:16:56.669Z,57.25
2023-03-05T09:18:28.749Z,50.83
2023-03-05T09:20:00.941Z,61.38
2023-03-05T09:21:32.568Z,50.85
2023-03-05T09:23:04.367Z,46.35
2023-03-05T09:24:36.559Z,58.08
2023-03-05T09:26:09.800Z,64.38
2023-03-05T09:27:41.603Z,59.95
2023-03-05T09:29:13.544Z,51.72
2023-03-05T09:30:45.173Z,46.97
2023-03-05T09:32:16.859Z,50.17
2023-03-05T09:33:49.870Z,48.47
2023-03-05T09:35:21.486Z,58.15
2023-03-05T09:36:53.066Z,45.50
2023-03-05T09:38:24.745Z,51.33
2023-03-05T09:39:57.231Z,48.03
2023-03-05T09:41:35.664Z,60.30
2023-03-05T09:43:19.964Z,54.88
2023-03-05T09:45:02.907Z,49.58
2023-03-05T09:46:44.961Z,55.90
2023-03-05T09:48:20.738Z,46.80
2023-03-05T09:50:01.459Z,47.38
2023-03-05T09:51:38.827Z,59.20
2023-03-05T09:53:28.627Z,50.67
2023-03-05T09:55:01.552Z,53.53
2023-03-05T09:56:41.757Z,47.85
2023-03-05T09:58:19.888Z,52.17
2023-03-05T10:00:08.902Z,48.00
2023-03-05T10:01:45.019Z,53.30
2023-03-05T10:03:28.282Z,47.58
2023-03-05T10:05:22.948Z,54.88
2023-03-05T10:07:04.327Z,48.58
2023-03-05T10:09:14.481Z,56.90
2023-03-05T10:10:52.834Z,54.47
2023-03-05T10:12:43.065Z,44.08
2023-03-05T10:14:21.321Z,43.40
2023-03-05T10:15:58.713Z,47.78
2023-03-05T10:17:46.145Z,36.45
2023-03-05T10:19:41.090Z,42.00
2023-03-05T10:21:22.142Z,34.40
2023-03-05T10:23:08.823Z,41.88
2023-03-05T10:25:10.004Z,32.97
2023-03-05T10:26:55.506Z,38.33
2023-03-05T10:28:30.390Z,36.75
2023-03-05T10:30:02.011Z,34.80
2023-03-05T10:31:51.498Z,43.85
2023-03-05T10:33:44.871Z,38.15
2023-03-05T10:35:31.423Z,30.88
2023-03-05T10:37:11.944Z,35.15
2023-03-05T10:38:59.870Z,31.02
2023-03-05T10:40:54.572Z,31.20
2023-03-05T10:42:44.483Z,35.55
2023-03-05T10:44:37.454Z,36.90
2023-03-05T10:46:15.628Z,31.90
2023-03-05T10:48:02.092Z,40.35
2023-03-05T10:49:38.108Z,38.15
2023-03-05T10:51:35.878Z,45.17
2023-03-05T10:53:10.549Z,34.05
2023-03-05T10:54:43.020Z,36.05
2023-03-05T10:56:16.008Z,39.75
2023-03-05T10:57:48.195Z,42.78
2023-03-05T10:59:19.805Z,24.65
2023-03-05T11:01:00.471Z,35.53
2023-03-05T11:02:34.313Z,35.58
2023-03-05T11:04:08.299Z,38.70
2023-03-05T11:05:42.804Z,35.95
2023-03-05T11:07:33.101Z,30.60
2023-03-05T11:09:20.079Z,37.53
2023-03-05T11:11:19.290Z,38.83
2023-03-05T11:12:51.296Z,42.58
2023-03-05T11:14:33.104Z,32.63
2023-03-05T11:16:07.207Z,34.72
2023-03-05T11:18:03.520Z,36.55
2023-03-05T11:19:35.454Z,26.42
2023-03-05T11:21:13.407Z,31.63
2023-03-05T11:23:02.103Z,25.38
2023-03-05T11:26:23.766Z,26.65
2023-03-05T11:27:57.790Z,25.63
2023-03-05T11:29:32.529Z,31.92
2023-03-05T11:31:18.354Z,33.35
2023-03-05T11:32:50.132Z,36.78
2023-03-05T11:34:35.537Z,31.48
2023-03-05T11:36:25.575Z,29.58
2023-03-05T11:38:02.265Z,29.35
2023-03-05T11:39:38.270Z,33.08
2023-03-05T11:41:10.401Z,29.35
2023-03-05T11:42:43.356Z,29.45
2023-03-05T11:44:25.149Z,35.30
2023-03-05T11:46:05.479Z,29.77
2023-03-05T11:47:47.358Z,33.50
2023-03-05T11:49:24.607Z,31.33
2023-03-05T11:51:00.924Z,29.80
2023-03-05T11:52:44.986Z,29.90
2023-03-05T11:54:23.098Z,30.25
2023-03-05T11:56:04.394Z,33.90
2023-03-05T11:58:08.832Z,31.95
2023-03-05T11:59:40.915Z,32.38
2023-03-05T12:01:22.602Z,30.83
2023-03-05T12:02:56.762Z,29.92
2023-03-05T12:04:32.022Z,38.35
2023-03-05T12:06:13.230Z,32.42
2023-03-05T12:07:52.480Z,31.48
2023-03-05T12:09:24.298Z,30.98
2023-03-05T12:10:57.588Z,31.63
2023-03-05T12:12:47.801Z,29.67
2023-03-05T12:14:48.113Z,33.38
2023-03-05T12:16:39.425Z,31.35
2023-03-05T12:18:52.844Z,36.15
2023-03-05T12:20:57.373Z,28.55
2023-03-05T12:22:36.612Z,26.90
2023-03-05T12:24:24.328Z,31.48
2023-03-05T12:25:59.459Z,29.52
2023-03-05T12:27:40.180Z,26.63
2023-03-05T12:29:40.085Z,25.30
2023-03-05T12:31:38.042Z,25.17
2023-03-05T12:33:41.749Z,26.45
2023-03-05T12:35:38.207Z,32.55
2023-03-05T12:37:33.539Z,29.58
2023-03-05T12:39:40.418Z,30.77
2023-03-05T12:41:34.516Z,30.42
2023-03-05T12:43:28.853Z,32.05
2023-03-05T12:45:09.720Z,31.73
2023-03-05T12:46:43.644Z,35.10
2023-03-05T12:48:15.297Z,31.52
2023-03-05T12:49:47.608Z,30.85
2023-03-05T12:51:32.998Z,33.20
2023-03-05T12:53:04.490Z,35.13
2023-03-05T12:54:39.876Z,27.27
2023-03-05T12:56:22.141Z,33.58
2023-03-05T12:58:00.599Z,28.98
2023-03-05T13:00:01.372Z,29.55
2023-03-05T13:01:44.151Z,29.05
2023-03-05T13:03:23.855Z,27.33
2023-03-05T13:05:08.535Z,30.90
2023-03-05T13:06:40.864Z,28.38
2023-03-05T13:08:16.305Z,27.35
2023-03-05T13:10:00.456Z,50.78
2023-03-05T13:11:37.721Z,55.00
2023-03-05T13:13:15.917Z,41.67
2023-03-05T13:14:57.402Z,38.63
2023-03-05T13:16:38.725Z,39.65
2023-03-05T13:18:20.245Z,32.33
2023-03-05T13:19:52.726Z,29.90
2023-03-05T13:21:27.040Z,33.17
2023-03-05T13:23:19.963Z,30.58
2023-03-05T13:25:20.611Z,29.38
2023-03-05T13:26:52.419Z,29.52
2023-03-05T13:28:25.044Z,31.88
2023-03-05T13:29:56.784Z,36.65
2023-03-05T13:31:31.347Z,35.67
2023-03-05T13:33:04.988Z,33.17
2023-03-05T13:34:47.210Z,27.63
2023-03-05T13:36:20.705Z,30.30
2023-03-05T13:37:52.521Z,31.80
2023-03-05T13:39:28.748Z,33.63
2023-03-05T13:41:08.649Z,34.03
2023-03-05T13:42:40.459Z,31.70
2023-03-05T13:44:21.965Z,30.63
2023-03-05T13:45:56.566Z,32.00
2023-03-05T13:47:33.093Z,32.83
2023-03-05T13:49:26.381Z,34.80
2023-03-05T13:50:58.896Z,30.63
2023-03-05T13:52:35.665Z,31.73
2023-03-05T13:54:10.325Z,33.70
2023-03-05T13:55:52.639Z,32.45
2023-03-05T13:57:39.300Z,33.95
2023-03-05T13:59:18.927Z,31.67
2023-03-05T14:01:09.308Z,29.13
2023-03-05T14:02:42.728Z,34.08
2023-03-05T14:04:14.596Z,35.20
2023-03-05T14:05:46.634Z,38.03
2023-03-05T14:07:20.967Z,35.55
2023-03-05T14:08:59.337Z,29.23
2023-03-05T14:10:31.136Z,30.67
2023-03-05T14:12:28.189Z,29.65
2023-03-05T14:14:08.170Z,35.80
2023-03-05T14:15:40.546Z,39.55
2023-03-05T14:17:44.874Z,26.35
2023-03-05T14:19:31.889Z,29.60
2023-03-05T14:21:08.831Z,30.83
2023-03-05T14:22:48.062Z,33.70
2023-03-05T14:24:28.548Z,34.70
2023-03-05T14:26:25.413Z,32.10
2023-03-05T14:27:58.379Z,34.92
2023-03-05T14:29:30.084Z,35.00
2023-03-05T14:31:02.041Z,39.42
2023-03-05T14:32:36.953Z,35.00
2023-03-05T14:34:08.816Z,37.13
2023-03-05T14:35:40.572Z,36.80
2023-03-05T14:37:29.430Z,31.90
2023-03-05T14:40:36.391Z,32.60
2023-03-05T14:42:27.019Z,32.08
2023-03-05T14:43:58.616Z,32.85
2023-03-05T14:45:30.301Z,37.17
2023-03-05T14:47:02.006Z,31.67
2023-03-05T14:48:33.658Z,36.75
2023-03-05T14:50:07.246Z,32.05
2023-03-05T14:51:42.523Z,34.63
2023-03-05T14:53:17.853Z,29.92
2023-03-05T14:54:49.979Z,33.03
2023-03-05T14:56:26.841Z,30.40
2023-03-05T14:58:04.514Z,40.78
2023-03-05T14:59:36.240Z,37.38
2023-03-05T15:01:11.807Z,33.20
2023-03-05T15:02:43.523Z,38.75
2023-03-05T15:04:19.025Z,35.05
2023-03-05T15:05:56.408Z,27.48
2023-03-05T15:07:32.267Z,32.08
2023-03-05T15:09:05.507Z,31.15
2023-03-05T15:10:37.238Z,31.52
2023-03-05T15:12:12.714Z,30.02
2023-03-05T15:13:44.673Z,28.05
2023-03-05T15:15:17.798Z,29.48
2023-03-05T15:16:49.676Z,32.00
2023-03-05T15:18:22.750Z,28.20
2023-03-05T15:19:54.386Z,30.90
2023-03-05T15:21:26.327Z,34.00
2023-03-05T15:22:58.307Z,31.77
2023-03-05T15:24:30.023Z,28.27
2023-03-05T15:26:05.529Z,35.25
2023-03-05T15:27:37.476Z,28.13
2023-03-05T15:29:09.194Z,26.85
2023-03-05T15:30:44.868Z,34.25
2023-03-05T15:32:16.818Z,34.83
2023-03-05T15:33:48.467Z,29.80
2023-03-05T15:35:21.072Z,35.00
2023-03-05T15:36:52.934Z,31.10
2023-03-05T15:38:25.610Z,31.40
2023-03-05T15:39:57.321Z,33.90
2023-03-05T15:41:29.200Z,30.13
2023-03-05T15:43:01.112Z,28.17
2023-03-05T15:44:32.758Z,30.35
2023-03-05T15:46:06.464Z,29.75
2023-03-05T15:47:38.084Z,34.55
2023-03-05T15:49:09.886Z,28.73
2023-03-05T15:50:43.579Z,28.13
2023-03-05T15:52:15.791Z,31.25
2023-03-05T15:53:47.975Z,32.97
2023-03-05T15:55:20.119Z,34.72
2023-03-05T15:56:52.828Z,27.15
2023-03-05T15:58:24.452Z,34.47
2023-03-05T15:59:56.262Z,31.75
2023-03-05T16:01:28.245Z,28.67
2023-03-05T16:03:00.238Z,38.80
2023-03-05T16:04:32.032Z,28.77
2023-03-05T16:06:05.137Z,29.25
2023-03-05T16:07:40.836Z,32.53
2023-03-05T16:09:13.997Z,33.92
2023-03-05T16:10:47.016Z,31.60
2023-03-05T16:12:23.997Z,34.50
2023-03-05T16:13:56.950Z,28.92
2023-03-05T16:15:30.085Z,31.08
2023-03-05T16:17:03.733Z,33.63
2023-03-05T16:18:42.045Z,40.40
2023-03-05T16:20:15.093Z,37.05
2023-03-05T16:21:47.013Z,35.00
2023-03-05T16:23:21.840Z,32.50
2023-03-05T16:24:53.908Z,30.38
2023-03-05T16:26:26.293Z,35.60
2023-03-05T16:27:58.349Z,39.50
2023-03-05T16:29:32.562Z,48.97
2023-03-05T16:31:04.928Z,49.70
2023-03-05T16:32:38.911Z,43.58
2023-03-05T16:34:14.112Z,50.92
2023-03-05T16:35:46.128Z,41.42
2023-03-05T16:37:20.882Z,31.40
2023-03-05T16:38:54.295Z,33.92
2023-03-05T16:40:34.318Z,32.28
2023-03-05T16:42:16.910Z,27.20
2023-03-05T16:43:49.000Z,29.10
2023-03-05T16:45:20.971Z,35.95
2023-03-05T16:46:56.613Z,36.70
2023-03-05T16:48:30.432Z,33.28
2023-03-05T16:50:02.987Z,37.30
2023-03-05T16:51:36.054Z,31.13
2023-03-05T16:53:07.806Z,33.75
2023-03-05T16:54:41.393Z,32.22
2023-03-05T16:56:14.774Z,29.42
2023-03-05T16:57:46.980Z,32.78
2023-03-05T16:59:19.114Z,29.02
2023-03-05T17:00:51.311Z,41.35
2023-03-05T17:02:23.553Z,33.80
2023-03-05T17:03:57.876Z,35.80
2023-03-05T17:05:30.034Z,27.52
2023-03-05T17:07:03.851Z,30.58
2023-03-05T17:08:35.825Z,32.65
2023-03-05T17:10:08.498Z,28.27
2023-03-05T17:11:40.676Z,25.27
2023-03-05T17:13:12.866Z,39.85
2023-03-05T17:14:44.827Z,37.05
2023-03-05T17:16:19.365Z,38.70
2023-03-05T17:17:51.375Z,45.03
2023-03-05T17:19:23.295Z,43.13
2023-03-05T17:20:55.305Z,39.75
2023-03-05T17:22:27.319Z,29.20
2023-03-05T17:23:59.502Z,31.05
2023-03-05T17:25:31.365Z,29.00
2023-03-05T17:27:03.476Z,27.77
2023-03-05T17:28:36.255Z,28.42
2023-03-05T17:30:09.111Z,25.58
2023-03-05T17:31:41.039Z,28.30
2023-03-05T17:33:13.473Z,29.52
2023-03-05T17:34:46.301Z,31.10
2023-03-05T17:36:20.816Z,36.53
2023-03-05T17:37:55.447Z,29.80
2023-03-05T17:39:27.810Z,36.35
2023-03-05T17:40:59.967Z,45.53
2023-03-05T17:42:31.922Z,131.50
2023-03-05T17:44:04.240Z,100.47
2023-03-05T17:45:36.485Z,58.40
2023-03-05T17:47:08.903Z,36.33
2023-03-05T17:48:41.713Z,33.50
2023-03-05T17:50:14.676Z,35.30
2023-03-05T17:51:46.646Z,35.38
2023-03-05T17:53:18.358Z,30.45
2023-03-05T17:54:53.143Z,33.70
2023-03-05T17:56:26.841Z,33.70
2023-03-05T17:57:59.691Z,34.53
2023-03-05T17:59:31.721Z,31.65
2023-03-05T18:01:05.349Z,35.17
2023-03-05T18:02:37.267Z,35.15
2023-03-05T18:04:11.402Z,32.53
2023-03-05T18:05:43.413Z,33.22
2023-03-05T18:07:15.558Z,34.85
2023-03-05T18:08:47.916Z,41.90
2023-03-05T18:10:21.200Z,40.13
2023-03-05T18:11:53.278Z,42.40
2023-03-05T18:13:25.234Z,47.17
2023-03-05T18:14:57.337Z,34.80
2023-03-05T18:16:29.793Z,90.85
2023-03-05T18:18:01.871Z,90.65
2023-03-05T18:19:33.759Z,70.82
2023-03-05T18:21:05.982Z,48.33
2023-03-05T18:22:38.019Z,41.53
2023-03-05T18:24:10.240Z,42.33
2023-03-05T18:25:42.612Z,39.35
2023-03-05T18:27:15.100Z,39.00
2023-03-05T18:28:47.221Z,40.90
2023-03-05T18:30:19.605Z,41.17
2023-03-05T18:31:51.561Z,44.85
2023-03-05T18:33:25.080Z,44.28
2023-03-05T18:34:57.204Z,43.85
2023-03-05T18:36:29.020Z,44.95
2023-03-05T18:38:01.112Z,48.45
2023-03-05T18:39:36.228Z,34.15
2023-03-05T18:41:08.566Z,37.53
2023-03-05T18:42:40.387Z,40.90
2023-03-05T18:44:13.552Z,41.55
2023-03-05T18:45:47.315Z,40.10
2023-03-05T18:47:19.106Z,34.35
2023-03-05T18:48:51.225Z,33.90
2023-03-05T18:50:25.843Z,40.25
2023-03-05T18:51:57.708Z,35.72
2023-03-05T18:53:29.988Z,37.03
2023-03-05T18:55:02.009Z,31.73
2023-03-05T18:56:34.344Z,40.95
2023-03-05T18:58:07.151Z,44.08
2023-03-05T18:59:39.345Z,35.55
2023-03-05T19:01:11.565Z,39.80
2023-03-05T19:02:43.790Z,33.35
2023-03-05T19:04:20.855Z,33.88
2023-03-05T19:05:53.451Z,56.83
2023-03-05T19:07:25.368Z,40.97
2023-03-05T19:09:01.117Z,40.85
2023-03-05T19:10:34.034Z,38.20
2023-03-05T19:12:06.471Z,39.63
2023-03-05T19:13:44.391Z,34.75
2023-03-05T19:15:17.015Z,35.17
2023-03-05T19:16:49.412Z,43.00
2023-03-05T19:18:21.501Z,41.25
2023-03-05T19:19:55.444Z,41.58
2023-03-05T19:21:30.049Z,46.28
2023-03-05T19:23:01.890Z,38.17
2023-03-05T19:24:34.574Z,36.33
2023-03-05T19:26:06.314Z,34.95
2023-03-05T19:27:38.803Z,32.08
2023-03-05T19:29:10.698Z,35.88
2023-03-05T19:30:42.609Z,42.33
2023-03-05T19:32:17.688Z,30.85
2023-03-05T19:33:49.630Z,34.08
2023-03-05T19:35:21.601Z,41.80
2023-03-05T19:36:53.313Z,33.25
2023-03-05T19:38:25.105Z,34.15
2023-03-05T19:39:56.952Z,44.78
2023-03-05T19:41:29.522Z,38.65
2023-03-05T19:43:01.423Z,35.95
2023-03-05T19:44:33.874Z,40.17
2023-03-05T19:46:08.184Z,44.40
2023-03-05T19:47:39.984Z,44.88
2023-03-05T19:49:11.795Z,37.15
2023-03-05T19:50:43.497Z,35.88
2023-03-05T19:52:15.448Z,44.75
2023-03-05T19:53:48.277Z,37.58
2023-03-05T19:55:20.001Z,40.03
2023-03-05T19:56:54.949Z,48.45
2023-03-05T19:58:26.706Z,38.28
2023-03-05T19:59:58.420Z,44.42
2023-03-05T20:01:30.339Z,36.70
2023-03-05T20:03:02.264Z,45.67
2023-03-05T20:04:34.110Z,48.25
2023-03-05T20:06:06.827Z,45.65
2023-03-05T20:07:38.603Z,49.03
2023-03-05T20:09:10.845Z,45.97
2023-03-05T20:10:42.629Z,39.95
2023-03-05T20:12:14.350Z,44.40
2023-03-05T20:13:46.454Z,41.85
2023-03-05T20:15:19.298Z,42.30
2023-03-05T20:16:51.947Z,41.88
2023-03-05T20:18:24.460Z,40.10
2023-03-05T20:19:59.016Z,46.60
2023-03-05T20:21:33.932Z,39.42
2023-03-05T20:23:05.701Z,55.58
2023-03-05T20:24:37.611Z,44.17
2023-03-05T20:26:09.385Z,40.75
2023-03-05T20:27:41.143Z,41.60